sensor_id;sensor_type;location;lat;lon;timestamp;pressure;altitude;pressure_sealevel;temperature
79228;BMP280;68658;46.174;11.254;2023-03-23T00:02:30;92502.31;;;9.36
79228;BMP280;68658;46.174;11.254;2023-03-23T00:05:01;92504.72;;;9.28
79228;BMP280;68658;46.174;11.254;2023-03-23T00:07:28;92497.53;;;9.23
79228;BMP280;68658;46.174;11.254;2023-03-23T00:09:55;92498.47;;;9.21
79228;BMP280;68658;46.174;11.254;2023-03-23T00:12:25;92491.28;;;8.94
79228;BMP280;68658;46.174;11.254;2023-03-23T00:14:55;92493.19;;;8.99
79228;BMP280;68658;46.174;11.254;2023-03-23T00:17:20;92490.81;;;9.01
79228;BMP280;68658;46.174;11.254;2023-03-23T00:19:46;92491.78;;;9.09
79228;BMP280;68658;46.174;11.254;2023-03-23T00:22:13;92491.78;;;9.20
79228;BMP280;68658;46.174;11.254;2023-03-23T00:24:39;92491.78;;;9.30
79228;BMP280;68658;46.174;11.254;2023-03-23T00:27:05;92495.59;;;9.19
79228;BMP280;68658;46.174;11.254;2023-03-23T00:29:30;92489.84;;;9.09
79228;BMP280;68658;46.174;11.254;2023-03-23T00:31:57;92490.56;;;9.21
79228;BMP280;68658;46.174;11.254;2023-03-23T00:34:23;92491.53;;;9.23
79228;BMP280;68658;46.174;11.254;2023-03-23T00:36:52;92490.56;;;9.10
79228;BMP280;68658;46.174;11.254;2023-03-23T00:39:25;92492.00;;;9.16
79228;BMP280;68658;46.174;11.254;2023-03-23T00:41:52;92489.84;;;9.09
79228;BMP280;68658;46.174;11.254;2023-03-23T00:44:18;92485.78;;;9.19
79228;BMP280;68658;46.174;11.254;2023-03-23T00:46:46;92483.63;;;9.18
79228;BMP280;68658;46.174;11.254;2023-03-23T00:49:15;92493.91;;;9.10
79228;BMP280;68658;46.174;11.254;2023-03-23T00:51:41;92485.28;;;9.10
79228;BMP280;68658;46.174;11.254;2023-03-23T00:54:07;92480.72;;;8.99
79228;BMP280;68658;46.174;11.254;2023-03-23T00:56:32;92483.56;;;8.79
79228;BMP280;68658;46.174;11.254;2023-03-23T00:58:58;92478.06;;;8.77
79228;BMP280;68658;46.174;11.254;2023-03-23T01:01:23;92478.81;;;8.89
79228;BMP280;68658;46.174;11.254;2023-03-23T01:03:49;92475.94;;;8.92
79228;BMP280;68658;46.174;11.254;2023-03-23T01:06:14;92483.13;;;8.92
79228;BMP280;68658;46.174;11.254;2023-03-23T01:08:41;92478.06;;;8.83
79228;BMP280;68658;46.174;11.254;2023-03-23T01:11:14;92476.38;;;8.69
79228;BMP280;68658;46.174;11.254;2023-03-23T01:13:43;92465.13;;;8.74
79228;BMP280;68658;46.174;11.254;2023-03-23T01:16:10;92471.63;;;8.84
79228;BMP280;68658;46.174;11.254;2023-03-23T01:18:36;92465.63;;;8.89
79228;BMP280;68658;46.174;11.254;2023-03-23T01:21:07;92463.50;;;8.87
79228;BMP280;68658;46.174;11.254;2023-03-23T01:23:34;92460.78;;;8.54
79228;BMP280;68658;46.174;11.254;2023-03-23T01:26:09;92462.97;;;8.67
79228;BMP280;68658;46.174;11.254;2023-03-23T01:28:36;92458.88;;;8.55
79228;BMP280;68658;46.174;11.254;2023-03-23T01:31:07;92456.25;;;8.55
79228;BMP280;68658;46.174;11.254;2023-03-23T01:33:33;92448.06;;;8.42
79228;BMP280;68658;46.174;11.254;2023-03-23T01:36:05;92446.88;;;8.38
79228;BMP280;68658;46.174;11.254;2023-03-23T01:38:31;92438.47;;;8.28
79228;BMP280;68658;46.174;11.254;2023-03-23T01:40:57;92440.13;;;8.26
79228;BMP280;68658;46.174;11.254;2023-03-23T01:43:22;92443.47;;;8.21
79228;BMP280;68658;46.174;11.254;2023-03-23T01:45:47;92446.34;;;8.28
79228;BMP280;68658;46.174;11.254;2023-03-23T01:48:25;92439.50;;;8.47
79228;BMP280;68658;46.174;11.254;2023-03-23T01:53:20;92437.78;;;8.44
79228;BMP280;68658;46.174;11.254;2023-03-23T01:55:48;92440.19;;;8.42
79228;BMP280;68658;46.174;11.254;2023-03-23T01:58:17;92433.72;;;8.43
79228;BMP280;68658;46.174;11.254;2023-03-23T02:00:43;92428.47;;;8.43
79228;BMP280;68658;46.174;11.254;2023-03-23T02:03:09;92428.94;;;8.36
79228;BMP280;68658;46.174;11.254;2023-03-23T02:05:40;92441.81;;;8.23
79228;BMP280;68658;46.174;11.254;2023-03-23T02:08:07;92427.00;;;8.31
79228;BMP280;68658;46.174;11.254;2023-03-23T02:10:35;92431.09;;;8.32
79228;BMP280;68658;46.174;11.254;2023-03-23T02:13:03;92434.63;;;8.24
79228;BMP280;68658;46.174;11.254;2023-03-23T02:18:27;92428.56;;;8.12
79228;BMP280;68658;46.174;11.254;2023-03-23T02:21:20;92427.88;;;8.12
79228;BMP280;68658;46.174;11.254;2023-03-23T02:26:55;92432.00;;;8.18
79228;BMP280;68658;46.174;11.254;2023-03-23T02:29:42;92422.41;;;8.15
79228;BMP280;68658;46.174;11.254;2023-03-23T02:32:14;92420.84;;;7.92
79228;BMP280;68658;46.174;11.254;2023-03-23T02:37:20;92424.28;;;8.09
79228;BMP280;68658;46.174;11.254;2023-03-23T02:39:50;92418.50;;;8.05
79228;BMP280;68658;46.174;11.254;2023-03-23T02:42:21;92421.38;;;8.02
79228;BMP280;68658;46.174;11.254;2023-03-23T02:44:49;92422.09;;;8.02
79228;BMP280;68658;46.174;11.254;2023-03-23T02:47:18;92418.94;;;7.87
79228;BMP280;68658;46.174;11.254;2023-03-23T02:49:45;92406.53;;;7.93
79228;BMP280;68658;46.174;11.254;2023-03-23T02:52:17;92408.66;;;7.89
79228;BMP280;68658;46.174;11.254;2023-03-23T02:54:46;92398.66;;;7.93
79228;BMP280;68658;46.174;11.254;2023-03-23T02:57:12;92399.56;;;7.90
79228;BMP280;68658;46.174;11.254;2023-03-23T02:59:39;92399.09;;;7.86
79228;BMP280;68658;46.174;11.254;2023-03-23T03:02:07;92403.38;;;7.78
79228;BMP280;68658;46.174;11.254;2023-03-23T03:04:36;92404.06;;;7.79
79228;BMP280;68658;46.174;11.254;2023-03-23T03:07:23;92404.28;;;7.75
79228;BMP280;68658;46.174;11.254;2023-03-23T03:10:01;92394.78;;;7.78
79228;BMP280;68658;46.174;11.254;2023-03-23T03:12:39;92393.09;;;7.80
79228;BMP280;68658;46.174;11.254;2023-03-23T03:15:29;92398.13;;;7.89
79228;BMP280;68658;46.174;11.254;2023-03-23T03:18:08;92401.97;;;7.88
79228;BMP280;68658;46.174;11.254;2023-03-23T03:20:38;92401.25;;;7.88
79228;BMP280;68658;46.174;11.254;2023-03-23T03:23:06;92403.91;;;7.93
79228;BMP280;68658;46.174;11.254;2023-03-23T03:25:34;92401.00;;;7.80
79228;BMP280;68658;46.174;11.254;2023-03-23T03:28:01;92406.94;;;7.81
79228;BMP280;68658;46.174;11.254;2023-03-23T03:30:30;92413.41;;;7.80
79228;BMP280;68658;46.174;11.254;2023-03-23T03:32:58;92407.91;;;7.78
79228;BMP280;68658;46.174;11.254;2023-03-23T03:35:29;92414.81;;;7.75
79228;BMP280;68658;46.174;11.254;2023-03-23T03:37:56;92408.88;;;7.80
79228;BMP280;68658;46.174;11.254;2023-03-23T03:40:22;92411.28;;;7.84
79228;BMP280;68658;46.174;11.254;2023-03-23T03:42:49;92414.34;;;7.82
79228;BMP280;68658;46.174;11.254;2023-03-23T03:45:17;92433.66;;;7.74
79228;BMP280;68658;46.174;11.254;2023-03-23T03:47:43;92426.75;;;7.76
79228;BMP280;68658;46.174;11.254;2023-03-23T03:50:09;92426.00;;;7.70
79228;BMP280;68658;46.174;11.254;2023-03-23T03:52:35;92426.69;;;7.60
79228;BMP280;68658;46.174;11.254;2023-03-23T03:55:00;92420.72;;;7.65
79228;BMP280;68658;46.174;11.254;2023-03-23T03:57:26;92430.22;;;7.57
79228;BMP280;68658;46.174;11.254;2023-03-23T03:59:51;92430.22;;;7.52
79228;BMP280;68658;46.174;11.254;2023-03-23T04:02:18;92431.88;;;7.55
79228;BMP280;68658;46.174;11.254;2023-03-23T04:04:48;92430.44;;;7.54
79228;BMP280;68658;46.174;11.254;2023-03-23T04:07:14;92430.72;;;7.56
79228;BMP280;68658;46.174;11.254;2023-03-23T04:09:44;92436.44;;;7.60
79228;BMP280;68658;46.174;11.254;2023-03-23T04:12:12;92421.47;;;7.66
79228;BMP280;68658;46.174;11.254;2023-03-23T04:14:38;92426.97;;;7.73
79228;BMP280;68658;46.174;11.254;2023-03-23T04:17:03;92430.72;;;7.56
79228;BMP280;68658;46.174;11.254;2023-03-23T04:19:28;92423.09;;;7.58
79228;BMP280;68658;46.174;11.254;2023-03-23T04:21:58;92414.19;;;7.50
79228;BMP280;68658;46.174;11.254;2023-03-23T04:24:24;92418.50;;;7.53
79228;BMP280;68658;46.174;11.254;2023-03-23T04:26:49;92422.13;;;7.55
79228;BMP280;68658;46.174;11.254;2023-03-23T04:29:17;92423.53;;;7.51
79228;BMP280;68658;46.174;11.254;2023-03-23T04:31:43;92417.78;;;7.52
79228;BMP280;68658;46.174;11.254;2023-03-23T04:34:11;92413.75;;;7.57
79228;BMP280;68658;46.174;11.254;2023-03-23T04:36:39;92415.22;;;7.58
79228;BMP280;68658;46.174;11.254;2023-03-23T04:39:06;92421.69;;;7.62
79228;BMP280;68658;46.174;11.254;2023-03-23T04:41:35;92431.97;;;7.66
79228;BMP280;68658;46.174;11.254;2023-03-23T04:44:01;92427.84;;;7.59
79228;BMP280;68658;46.174;11.254;2023-03-23T04:46:28;92436.44;;;7.60
79228;BMP280;68658;46.174;11.254;2023-03-23T04:48:54;92427.38;;;7.61
79228;BMP280;68658;46.174;11.254;2023-03-23T04:51:20;92434.78;;;7.57
79228;BMP280;68658;46.174;11.254;2023-03-23T04:53:45;92444.75;;;7.53
79228;BMP280;68658;46.174;11.254;2023-03-23T04:56:11;92433.78;;;7.49
79228;BMP280;68658;46.174;11.254;2023-03-23T04:58:39;92440.16;;;7.42
79228;BMP280;68658;46.174;11.254;2023-03-23T05:01:06;92439.16;;;7.29
79228;BMP280;68658;46.174;11.254;2023-03-23T05:03:31;92446.72;;;7.21
79228;BMP280;68658;46.174;11.254;2023-03-23T05:05:57;92439.16;;;7.29
79228;BMP280;68658;46.174;11.254;2023-03-23T05:08:26;92441.97;;;7.25
79228;BMP280;68658;46.174;11.254;2023-03-23T05:10:57;92444.03;;;7.16
79228;BMP280;68658;46.174;11.254;2023-03-23T05:13:23;92448.59;;;7.15
79228;BMP280;68658;46.174;11.254;2023-03-23T05:15:48;92455.50;;;7.13
79228;BMP280;68658;46.174;11.254;2023-03-23T05:18:15;92454.13;;;7.23
79228;BMP280;68658;46.174;11.254;2023-03-23T05:20:41;92451.91;;;7.16
79228;BMP280;68658;46.174;11.254;2023-03-23T05:23:11;92453.09;;;7.15
79228;BMP280;68658;46.174;11.254;2023-03-23T05:25:38;92453.06;;;7.09
79228;BMP280;68658;46.174;11.254;2023-03-23T05:28:07;92455.66;;;7.04
79228;BMP280;68658;46.174;11.254;2023-03-23T05:30:34;92455.13;;;7.00
79228;BMP280;68658;46.174;11.254;2023-03-23T05:33:01;92452.56;;;7.05
79228;BMP280;68658;46.174;11.254;2023-03-23T05:35:26;92455.38;;;7.02
79228;BMP280;68658;46.174;11.254;2023-03-23T05:37:52;92466.97;;;7.15
79228;BMP280;68658;46.174;11.254;2023-03-23T05:40:19;92464.63;;;7.23
79228;BMP280;68658;46.174;11.254;2023-03-23T05:42:45;92476.13;;;7.31
79228;BMP280;68658;46.174;11.254;2023-03-23T05:45:11;92475.53;;;7.16
79228;BMP280;68658;46.174;11.254;2023-03-23T05:47:38;92474.41;;;7.22
79228;BMP280;68658;46.174;11.254;2023-03-23T05:50:05;92472.50;;;7.23
79228;BMP280;68658;46.174;11.254;2023-03-23T05:52:32;92473.78;;;7.33
79228;BMP280;68658;46.174;11.254;2023-03-23T05:54:58;92481.75;;;7.49
79228;BMP280;68658;46.174;11.254;2023-03-23T05:57:24;92481.53;;;7.53
79228;BMP280;68658;46.174;11.254;2023-03-23T05:59:49;92488.28;;;7.59
79228;BMP280;68658;46.174;11.254;2023-03-23T06:02:15;92496.63;;;7.58
79228;BMP280;68658;46.174;11.254;2023-03-23T06:04:40;92490.19;;;7.59
79228;BMP280;68658;46.174;11.254;2023-03-23T06:07:07;92490.72;;;7.68
79228;BMP280;68658;46.174;11.254;2023-03-23T06:09:33;92491.50;;;7.79
79228;BMP280;68658;46.174;11.254;2023-03-23T06:11:58;92491.06;;;7.86
79228;BMP280;68658;46.174;11.254;2023-03-23T06:14:23;92500.84;;;7.80
79228;BMP280;68658;46.174;11.254;2023-03-23T06:16:49;92499.97;;;7.94
79228;BMP280;68658;46.174;11.254;2023-03-23T06:19:14;92493.09;;;8.08
79228;BMP280;68658;46.174;11.254;2023-03-23T06:21:41;92492.22;;;8.16
79228;BMP280;68658;46.174;11.254;2023-03-23T06:24:07;92501.00;;;8.13
79228;BMP280;68658;46.174;11.254;2023-03-23T06:26:35;92500.66;;;8.31
79228;BMP280;68658;46.174;11.254;2023-03-23T06:29:02;92499.25;;;8.41
79228;BMP280;68658;46.174;11.254;2023-03-23T06:31:28;92494.75;;;8.52
79228;BMP280;68658;46.174;11.254;2023-03-23T06:33:54;92511.03;;;8.62
79228;BMP280;68658;46.174;11.254;2023-03-23T06:36:20;92506.53;;;8.73
79228;BMP280;68658;46.174;11.254;2023-03-23T06:38:45;92502.72;;;8.85
79228;BMP280;68658;46.174;11.254;2023-03-23T06:41:14;92501.56;;;8.97
79228;BMP280;68658;46.174;11.254;2023-03-23T06:43:39;92510.66;;;8.96
79228;BMP280;68658;46.174;11.254;2023-03-23T06:46:07;92514.25;;;9.10
79228;BMP280;68658;46.174;11.254;2023-03-23T06:48:33;92517.84;;;9.01
79228;BMP280;68658;46.174;11.254;2023-03-23T06:50:59;92524.50;;;8.80
79228;BMP280;68658;46.174;11.254;2023-03-23T06:53:24;92521.88;;;8.86
79228;BMP280;68658;46.174;11.254;2023-03-23T06:55:50;92519.75;;;9.12
79228;BMP280;68658;46.174;11.254;2023-03-23T06:58:15;92519.53;;;9.31
79228;BMP280;68658;46.174;11.254;2023-03-23T07:00:41;92521.72;;;9.49
79228;BMP280;68658;46.174;11.254;2023-03-23T07:03:07;92519.09;;;9.60
79228;BMP280;68658;46.174;11.254;2023-03-23T07:05:34;92518.59;;;9.67
79228;BMP280;68658;46.174;11.254;2023-03-23T07:08:00;92515.47;;;9.63
79228;BMP280;68658;46.174;11.254;2023-03-23T07:10:25;92501.81;;;9.70
79228;BMP280;68658;46.174;11.254;2023-03-23T07:12:54;92506.38;;;9.75
79228;BMP280;68658;46.174;11.254;2023-03-23T07:15:19;92499.66;;;9.80
79228;BMP280;68658;46.174;11.254;2023-03-23T07:17:47;92500.88;;;9.73
79228;BMP280;68658;46.174;11.254;2023-03-23T07:20:12;92505.66;;;9.75
79228;BMP280;68658;46.174;11.254;2023-03-23T07:22:38;92503.25;;;9.82
79228;BMP280;68658;46.174;11.254;2023-03-23T07:25:04;92497.75;;;9.80
79228;BMP280;68658;46.174;11.254;2023-03-23T07:27:30;92496.53;;;9.81
79228;BMP280;68658;46.174;11.254;2023-03-23T07:29:55;92500.13;;;9.84
79228;BMP280;68658;46.174;11.254;2023-03-23T07:32:22;92501.84;;;9.65
79228;BMP280;68658;46.174;11.254;2023-03-23T07:34:48;92498.00;;;9.60
79228;BMP280;68658;46.174;11.254;2023-03-23T07:37:13;92497.28;;;9.71
79228;BMP280;68658;46.174;11.254;2023-03-23T07:39:39;92500.63;;;9.82
79228;BMP280;68658;46.174;11.254;2023-03-23T07:42:08;92500.84;;;9.95
79228;BMP280;68658;46.174;11.254;2023-03-23T07:44:34;92491.25;;;10.03
79228;BMP280;68658;46.174;11.254;2023-03-23T07:46:59;92491.72;;;10.12
79228;BMP280;68658;46.174;11.254;2023-03-23T07:49:25;92498.16;;;10.28
79228;BMP280;68658;46.174;11.254;2023-03-23T07:51:51;92495.97;;;10.32
79228;BMP280;68658;46.174;11.254;2023-03-23T07:54:19;92481.06;;;10.45
79228;BMP280;68658;46.174;11.254;2023-03-23T07:56:45;92496.13;;;10.61
79228;BMP280;68658;46.174;11.254;2023-03-23T07:59:12;92494.81;;;10.78
79228;BMP280;68658;46.174;11.254;2023-03-23T08:01:38;92495.56;;;10.74
79228;BMP280;68658;46.174;11.254;2023-03-23T08:04:04;92493.56;;;10.90
79228;BMP280;68658;46.174;11.254;2023-03-23T08:06:32;92499.34;;;10.89
79228;BMP280;68658;46.174;11.254;2023-03-23T08:09:02;92499.31;;;10.94
79228;BMP280;68658;46.174;11.254;2023-03-23T08:11:34;92502.78;;;11.13
79228;BMP280;68658;46.174;11.254;2023-03-23T08:13:59;92495.00;;;11.26
79228;BMP280;68658;46.174;11.254;2023-03-23T08:16:25;92500.53;;;11.28
79228;BMP280;68658;46.174;11.254;2023-03-23T08:18:50;92493.50;;;11.36
79228;BMP280;68658;46.174;11.254;2023-03-23T08:21:17;92492.06;;;11.35
79228;BMP280;68658;46.174;11.254;2023-03-23T08:23:47;92501.72;;;11.33
79228;BMP280;68658;46.174;11.254;2023-03-23T08:26:12;92503.56;;;11.43
79228;BMP280;68658;46.174;11.254;2023-03-23T08:28:40;92496.69;;;11.64
79228;BMP280;68658;46.174;11.254;2023-03-23T08:31:07;92491.47;;;11.82
79228;BMP280;68658;46.174;11.254;2023-03-23T08:33:33;92489.03;;;11.90
79228;BMP280;68658;46.174;11.254;2023-03-23T08:35:59;92494.53;;;11.92
79228;BMP280;68658;46.174;11.254;2023-03-23T08:38:26;92481.78;;;11.90
79228;BMP280;68658;46.174;11.254;2023-03-23T08:40:57;92486.25;;;11.77
79228;BMP280;68658;46.174;11.254;2023-03-23T08:43:23;92488.78;;;11.88
79228;BMP280;68658;46.174;11.254;2023-03-23T08:45:50;92489.69;;;11.96
79228;BMP280;68658;46.174;11.254;2023-03-23T08:48:16;92490.25;;;12.13
79228;BMP280;68658;46.174;11.254;2023-03-23T08:50:43;92488.16;;;12.06
79228;BMP280;68658;46.174;11.254;2023-03-23T08:53:08;92495.22;;;12.22
79228;BMP280;68658;46.174;11.254;2023-03-23T08:55:34;92493.88;;;12.33
79228;BMP280;68658;46.174;11.254;2023-03-23T08:57:59;92496.50;;;12.57
79228;BMP280;68658;46.174;11.254;2023-03-23T09:00:25;92505.09;;;12.63
79228;BMP280;68658;46.174;11.254;2023-03-23T09:02:53;92503.91;;;12.83
79228;BMP280;68658;46.174;11.254;2023-03-23T09:05:21;92498.41;;;12.99
79228;BMP280;68658;46.174;11.254;2023-03-23T09:07:51;92495.63;;;13.10
79228;BMP280;68658;46.174;11.254;2023-03-23T09:10:17;92506.53;;;12.88
79228;BMP280;68658;46.174;11.254;2023-03-23T09:12:44;92497.78;;;12.93
79228;BMP280;68658;46.174;11.254;2023-03-23T09:15:16;92500.19;;;13.10
79228;BMP280;68658;46.174;11.254;2023-03-23T09:17:48;92493.03;;;13.23
79228;BMP280;68658;46.174;11.254;2023-03-23T09:20:17;92494.63;;;13.13
79228;BMP280;68658;46.174;11.254;2023-03-23T09:22:45;92503.06;;;13.30
79228;BMP280;68658;46.174;11.254;2023-03-23T09:25:13;92496.53;;;13.31
79228;BMP280;68658;46.174;11.254;2023-03-23T09:27:40;92494.34;;;13.35
79228;BMP280;68658;46.174;11.254;2023-03-23T09:30:11;92500.19;;;13.46
79228;BMP280;68658;46.174;11.254;2023-03-23T09:32:38;92496.19;;;13.71
79228;BMP280;68658;46.174;11.254;2023-03-23T09:35:07;92489.00;;;13.97
79228;BMP280;68658;46.174;11.254;2023-03-23T09:37:38;92487.25;;;14.00
79228;BMP280;68658;46.174;11.254;2023-03-23T09:40:10;92494.25;;;13.72
79228;BMP280;68658;46.174;11.254;2023-03-23T09:50:59;92490.09;;;14.59
79228;BMP280;68658;46.174;11.254;2023-03-23T09:53:34;92483.34;;;14.71
79228;BMP280;68658;46.174;11.254;2023-03-23T09:56:10;92490.00;;;14.65
79228;BMP280;68658;46.174;11.254;2023-03-23T09:58:52;92479.31;;;14.90
79228;BMP280;68658;46.174;11.254;2023-03-23T10:01:25;92480.72;;;15.17
79228;BMP280;68658;46.174;11.254;2023-03-23T10:04:05;92478.41;;;14.88
79228;BMP280;68658;46.174;11.254;2023-03-23T10:06:32;92486.63;;;14.64
79228;BMP280;68658;46.174;11.254;2023-03-23T10:09:01;92489.88;;;14.57
79228;BMP280;68658;46.174;11.254;2023-03-23T10:11:56;92485.38;;;14.65
79228;BMP280;68658;46.174;11.254;2023-03-23T10:14:31;92481.09;;;14.36
79228;BMP280;68658;46.174;11.254;2023-03-23T10:19:52;92480.63;;;14.51
79228;BMP280;68658;46.174;11.254;2023-03-23T10:25:36;92482.31;;;14.74
79228;BMP280;68658;46.174;11.254;2023-03-23T10:28:11;92483.97;;;14.38
79228;BMP280;68658;46.174;11.254;2023-03-23T10:30:45;92474.59;;;14.24
79228;BMP280;68658;46.174;11.254;2023-03-23T10:33:41;92469.63;;;14.02
79228;BMP280;68658;46.174;11.254;2023-03-23T10:36:29;92469.06;;;14.22
79228;BMP280;68658;46.174;11.254;2023-03-23T10:39:00;92477.00;;;14.74
79228;BMP280;68658;46.174;11.254;2023-03-23T10:41:29;92464.28;;;14.93
79228;BMP280;68658;46.174;11.254;2023-03-23T10:43:55;92464.66;;;15.10
79228;BMP280;68658;46.174;11.254;2023-03-23T10:46:38;92464.72;;;15.84
79228;BMP280;68658;46.174;11.254;2023-03-23T10:49:12;92458.22;;;15.92
79228;BMP280;68658;46.174;11.254;2023-03-23T10:51:43;92457.75;;;16.01
79228;BMP280;68658;46.174;11.254;2023-03-23T10:54:26;92454.47;;;16.36
79228;BMP280;68658;46.174;11.254;2023-03-23T10:56:52;92448.06;;;16.67
79228;BMP280;68658;46.174;11.254;2023-03-23T10:59:27;92441.72;;;17.20
79228;BMP280;68658;46.174;11.254;2023-03-23T11:01:55;92416.44;;;17.13
79228;BMP280;68658;46.174;11.254;2023-03-23T11:04:22;92429.69;;;17.41
79228;BMP280;68658;46.174;11.254;2023-03-23T11:06:51;92420.03;;;17.23
79228;BMP280;68658;46.174;11.254;2023-03-23T11:09:22;92422.84;;;17.18
79228;BMP280;68658;46.174;11.254;2023-03-23T11:11:58;92414.84;;;17.18
79228;BMP280;68658;46.174;11.254;2023-03-23T11:14:35;92411.34;;;17.38
79228;BMP280;68658;46.174;11.254;2023-03-23T11:17:05;92414.06;;;17.83
79228;BMP280;68658;46.174;11.254;2023-03-23T11:19:44;92410.69;;;17.67
79228;BMP280;68658;46.174;11.254;2023-03-23T11:22:18;92415.28;;;17.52
79228;BMP280;68658;46.174;11.254;2023-03-23T11:24:47;92405.69;;;18.01
79228;BMP280;68658;46.174;11.254;2023-03-23T11:27:14;92414.09;;;18.05
79228;BMP280;68658;46.174;11.254;2023-03-23T11:29:55;92405.53;;;18.14
79228;BMP280;68658;46.174;11.254;2023-03-23T11:32:27;92407.81;;;19.01
79228;BMP280;68658;46.174;11.254;2023-03-23T11:34:58;92407.69;;;18.84
79228;BMP280;68658;46.174;11.254;2023-03-23T11:37:39;92395.00;;;19.00
79228;BMP280;68658;46.174;11.254;2023-03-23T11:42:44;92396.75;;;19.68
79228;BMP280;68658;46.174;11.254;2023-03-23T11:45:31;92398.56;;;20.15
79228;BMP280;68658;46.174;11.254;2023-03-23T11:50:54;92387.19;;;20.07
79228;BMP280;68658;46.174;11.254;2023-03-23T11:56:03;92389.47;;;20.51
79228;BMP280;68658;46.174;11.254;2023-03-23T11:58:31;92380.16;;;20.52
79228;BMP280;68658;46.174;11.254;2023-03-23T12:04:05;92381.44;;;21.28
79228;BMP280;68658;46.174;11.254;2023-03-23T12:15:29;92369.91;;;21.62
79228;BMP280;68658;46.174;11.254;2023-03-23T12:18:06;92378.53;;;21.17
79228;BMP280;68658;46.174;11.254;2023-03-23T12:21:12;92378.06;;;21.81
79228;BMP280;68658;46.174;11.254;2023-03-23T12:23:56;92373.09;;;21.24
79228;BMP280;68658;46.174;11.254;2023-03-23T12:26:30;92373.53;;;20.53
79228;BMP280;68658;46.174;11.254;2023-03-23T12:34:57;92365.91;;;23.38
79228;BMP280;68658;46.174;11.254;2023-03-23T12:43:18;92345.22;;;21.46
79228;BMP280;68658;46.174;11.254;2023-03-23T12:48:43;92337.03;;;22.35
79228;BMP280;68658;46.174;11.254;2023-03-23T13:07:53;92343.53;;;23.17
79228;BMP280;68658;46.174;11.254;2023-03-23T13:10:32;92333.59;;;23.68
79228;BMP280;68658;46.174;11.254;2023-03-23T13:12:58;92339.63;;;26.35
79228;BMP280;68658;46.174;11.254;2023-03-23T13:15:46;92332.63;;;25.63
79228;BMP280;68658;46.174;11.254;2023-03-23T13:21:13;92309.44;;;26.74
79228;BMP280;68658;46.174;11.254;2023-03-23T13:24:05;92317.50;;;26.27
79228;BMP280;68658;46.174;11.254;2023-03-23T13:26:38;92308.06;;;28.00
79228;BMP280;68658;46.174;11.254;2023-03-23T13:29:19;92314.47;;;26.44
79228;BMP280;68658;46.174;11.254;2023-03-23T13:31:46;92323.03;;;26.29
79228;BMP280;68658;46.174;11.254;2023-03-23T13:37:05;92334.94;;;29.45
79228;BMP280;68658;46.174;11.254;2023-03-23T13:39:33;92346.75;;;27.37
79228;BMP280;68658;46.174;11.254;2023-03-23T13:47:39;92316.19;;;27.48
79228;BMP280;68658;46.174;11.254;2023-03-23T13:50:12;92306.31;;;29.29
79228;BMP280;68658;46.174;11.254;2023-03-23T13:57:55;92286.72;;;28.88
79228;BMP280;68658;46.174;11.254;2023-03-23T14:02:52;92290.78;;;30.06
79228;BMP280;68658;46.174;11.254;2023-03-23T14:10:38;92265.44;;;31.35
79228;BMP280;68658;46.174;11.254;2023-03-23T14:13:09;92260.56;;;30.64
79228;BMP280;68658;46.174;11.254;2023-03-23T14:15:44;92263.50;;;31.38
79228;BMP280;68658;46.174;11.254;2023-03-23T14:18:15;92253.88;;;32.88
79228;BMP280;68658;46.174;11.254;2023-03-23T14:20:42;92259.19;;;31.67
79228;BMP280;68658;46.174;11.254;2023-03-23T14:23:19;92253.22;;;31.19
79228;BMP280;68658;46.174;11.254;2023-03-23T14:25:53;92249.09;;;31.18
79228;BMP280;68658;46.174;11.254;2023-03-23T14:28:20;92245.56;;;30.63
79228;BMP280;68658;46.174;11.254;2023-03-23T14:30:51;92247.03;;;30.33
79228;BMP280;68658;46.174;11.254;2023-03-23T14:33:18;92245.94;;;30.73
79228;BMP280;68658;46.174;11.254;2023-03-23T14:35:45;92254.34;;;31.83
79228;BMP280;68658;46.174;11.254;2023-03-23T14:38:18;92265.75;;;31.60
79228;BMP280;68658;46.174;11.254;2023-03-23T14:40:45;92255.75;;;30.63
79228;BMP280;68658;46.174;11.254;2023-03-23T14:43:14;92253.22;;;32.29
79228;BMP280;68658;46.174;11.254;2023-03-23T14:45:40;92251.41;;;31.60
79228;BMP280;68658;46.174;11.254;2023-03-23T14:48:06;92258.00;;;31.72
79228;BMP280;68658;46.174;11.254;2023-03-23T14:50:40;92249.53;;;31.47
79228;BMP280;68658;46.174;11.254;2023-03-23T14:53:19;92254.28;;;33.44
79228;BMP280;68658;46.174;11.254;2023-03-23T14:55:47;92255.69;;;31.47
79228;BMP280;68658;46.174;11.254;2023-03-23T14:58:15;92260.28;;;31.43
79228;BMP280;68658;46.174;11.254;2023-03-23T15:00:46;92251.00;;;33.26
79228;BMP280;68658;46.174;11.254;2023-03-23T15:03:15;92254.03;;;32.53
79228;BMP280;68658;46.174;11.254;2023-03-23T15:05:54;92252.22;;;33.21
79228;BMP280;68658;46.174;11.254;2023-03-23T15:08:26;92262.41;;;32.57
79228;BMP280;68658;46.174;11.254;2023-03-23T15:11:21;92259.00;;;32.78
79228;BMP280;68658;46.174;11.254;2023-03-23T15:13:56;92259.75;;;32.20
79228;BMP280;68658;46.174;11.254;2023-03-23T15:16:28;92269.50;;;31.88
79228;BMP280;68658;46.174;11.254;2023-03-23T15:19:26;92275.06;;;31.90
79228;BMP280;68658;46.174;11.254;2023-03-23T15:21:54;92265.88;;;30.77
79228;BMP280;68658;46.174;11.254;2023-03-23T15:24:41;92269.22;;;31.80
79228;BMP280;68658;46.174;11.254;2023-03-23T15:27:16;92265.97;;;31.66
79228;BMP280;68658;46.174;11.254;2023-03-23T15:33:11;92273.19;;;30.40
79228;BMP280;68658;46.174;11.254;2023-03-23T15:35:48;92274.59;;;31.07
79228;BMP280;68658;46.174;11.254;2023-03-23T15:38:21;92268.47;;;31.43
79228;BMP280;68658;46.174;11.254;2023-03-23T15:40:57;92275.84;;;28.75
79228;BMP280;68658;46.174;11.254;2023-03-23T15:43:34;92266.75;;;28.97
79228;BMP280;68658;46.174;11.254;2023-03-23T15:46:04;92253.19;;;26.61
79228;BMP280;68658;46.174;11.254;2023-03-23T15:48:33;92274.09;;;26.48
79228;BMP280;68658;46.174;11.254;2023-03-23T15:51:02;92267.25;;;29.82
79228;BMP280;68658;46.174;11.254;2023-03-23T15:53:34;92263.47;;;30.04
79228;BMP280;68658;46.174;11.254;2023-03-23T15:56:01;92265.66;;;28.89
79228;BMP280;68658;46.174;11.254;2023-03-23T15:58:28;92261.81;;;28.51
79228;BMP280;68658;46.174;11.254;2023-03-23T16:00:55;92254.66;;;31.02
79228;BMP280;68658;46.174;11.254;2023-03-23T16:03:46;92260.84;;;30.22